Langston, OK (73050)

12:54 PM CDT on September 19, 2014 (GMT -0500)
Near Antelope Creek | Change Station
CLOSE
Current Station
Personal Weather Station
Location: Guthrie, OK
Elevation: 1109 ft
Nearby Weather Stations
4.0 Earthquake: Medford, Oklahoma (16 hours ago)  

Elev 1109 ft 35.91 °N, 97.35 °W | Updated 1 second ago

Partly Cloudy
Partly Cloudy
83.1 °F
Feels Like 89 °F
N
2.0
Wind Variable Wind from South
Gusts 9.0 mph

Today
High -- | Low -- °F
--% Chance of Precip.
Yesterday
High -- | Low -- °F
Precip. -- in
7:14 AM 7:30 PM
Waning Crescent, 18% visible
Pressure 29.99 in
Visibility 10.0 miles
Clouds Scattered Clouds 1200 ft
Heat Index 89 °F
Dew Point 73 °F
Humidity 71%
Rainfall 0.00 in
Snow Depth Not available.
UV 6 out of 12
Pollen 10.40 out of 12
Air Quality Not available.
Flu Activity Not available.
METAR KGOK 191653Z AUTO 15008KT 10SM SCT012 25/21 A3001 RMK AO2 SLP153 T02500211

More Conditions Fewer Conditions

Pressure 29.99 in
Visibility 10.0 miles
Clouds Scattered Clouds 1200 ft
Heat Index 89 °F
Dew Point 73 °F
Humidity 71%
Rainfall 0.00 in
Snow Depth Not available.
UV 6 out of 12
Pollen 10.40 out of 12
Air Quality Not available.
Flu Activity Not available.
METAR KGOK 191653Z AUTO 15008KT 10SM SCT012 25/21 A3001 RMK AO2 SLP153 T02500211

More Conditions Fewer Conditions

10-Day Weather Forecast

Almanac

Astronomy

Sep. 19, 2014 Rise Set
Actual Time 7:14 AM CDT 7:30 PM CDT
Civil Twilight 6:49 AM CDT 7:55 PM CDT
Nautical Twilight 6:19 AM CDT 8:25 PM CDT
Astronomical Twilight 5:48 AM CDT 8:56 PM CDT
Moon 3:07 AM CDT 4:54 PM CDT
Length of Visible Light 13h 06m
Length of Day
12h 15m
Tomorrow will be 2m 15s shorter.
Waning Crescent, 18% of the Moon is Illuminated
Today
Waning Crescent
Sep 24
New
Oct 1
First Quarter
Oct 8
Full
Oct 15
Last Quarter

Today's Extremes

State Highs State Lows

Community

WunderPhotos

Upload Photos

1,754,668 photos uploaded!

Nearby

Snow Depth

Station Depth Elevation
No new snow has been reported.

Earthquake Activity

City Distance Mag. Time & Date
Guthrie, Oklahoma 12 miles 3.9 12:23 PM CDT
2014-09-19
Jones, Oklahoma 25 miles 2.8 1:13 AM CDT
2014-09-19
Perry, Oklahoma 16 miles 3.3 12:08 AM CDT
2014-09-19
Cherokee, Oklahoma 71 miles 2.8 10:11 PM CDT
2014-09-18
Minimum magnitude displayed is 2.5.

Coastal Water Temperatures

Place Temperature
No Stations Reporting

Nearby Weather Stations